sensor_id;sensor_type;location;lat;lon;timestamp;P1;durP1;ratioP1;P2;durP2;ratioP2
18336;SDS011;9294;51.106;7.028;2022-12-18T10:53:17;14.70;;;4.65;;
18336;SDS011;9294;51.106;7.028;2022-12-18T10:55:46;7.60;;;4.60;;
18336;SDS011;9294;51.106;7.028;2022-12-18T10:58:16;9.02;;;4.40;;
18336;SDS011;9294;51.106;7.028;2022-12-18T11:00:43;5.80;;;4.55;;
18336;SDS011;9294;51.106;7.028;2022-12-18T11:06:00;6.53;;;4.50;;
18336;SDS011;9294;51.106;7.028;2022-12-18T11:08:29;5.95;;;5.10;;
18336;SDS011;9294;51.106;7.028;2022-12-18T11:10:56;6.20;;;5.05;;
18336;SDS011;9294;51.106;7.028;2022-12-18T11:13:23;7.60;;;5.25;;
18336;SDS011;9294;51.106;7.028;2022-12-18T11:15:51;5.78;;;4.85;;
18336;SDS011;9294;51.106;7.028;2022-12-18T11:18:20;6.53;;;5.32;;
18336;SDS011;9294;51.106;7.028;2022-12-18T11:20:52;5.28;;;4.82;;
18336;SDS011;9294;51.106;7.028;2022-12-18T11:23:20;4.97;;;4.32;;
18336;SDS011;9294;51.106;7.028;2022-12-18T11:25:54;4.88;;;4.28;;
18336;SDS011;9294;51.106;7.028;2022-12-18T11:28:25;5.75;;;3.95;;
18336;SDS011;9294;51.106;7.028;2022-12-18T11:31:08;4.78;;;4.32;;
18336;SDS011;9294;51.106;7.028;2022-12-18T11:33:36;8.25;;;4.28;;
18336;SDS011;9294;51.106;7.028;2022-12-18T11:36:04;6.75;;;5.00;;
18336;SDS011;9294;51.106;7.028;2022-12-18T11:38:34;4.72;;;4.32;;
18336;SDS011;9294;51.106;7.028;2022-12-18T11:41:03;4.63;;;4.18;;
18336;SDS011;9294;51.106;7.028;2022-12-18T11:43:33;4.85;;;4.43;;
18336;SDS011;9294;51.106;7.028;2022-12-18T11:46:03;4.78;;;4.38;;
18336;SDS011;9294;51.106;7.028;2022-12-18T11:48:32;5.35;;;4.85;;
18336;SDS011;9294;51.106;7.028;2022-12-18T11:51:00;4.65;;;4.15;;
18336;SDS011;9294;51.106;7.028;2022-12-18T11:53:28;4.75;;;4.35;;
18336;SDS011;9294;51.106;7.028;2022-12-18T11:55:59;7.57;;;4.18;;
18336;SDS011;9294;51.106;7.028;2022-12-18T11:58:32;6.57;;;4.28;;
18336;SDS011;9294;51.106;7.028;2022-12-18T12:01:07;4.07;;;3.78;;
18336;SDS011;9294;51.106;7.028;2022-12-18T12:06:24;4.35;;;3.95;;
18336;SDS011;9294;51.106;7.028;2022-12-18T12:08:59;4.10;;;3.80;;
18336;SDS011;9294;51.106;7.028;2022-12-18T12:11:33;5.00;;;4.22;;
18336;SDS011;9294;51.106;7.028;2022-12-18T12:14:07;5.70;;;4.38;;
18336;SDS011;9294;51.106;7.028;2022-12-18T12:16:37;5.88;;;4.43;;
18336;SDS011;9294;51.106;7.028;2022-12-18T12:19:15;6.47;;;4.15;;
18336;SDS011;9294;51.106;7.028;2022-12-18T12:21:46;5.57;;;3.97;;
18336;SDS011;9294;51.106;7.028;2022-12-18T12:24:21;6.38;;;4.28;;
18336;SDS011;9294;51.106;7.028;2022-12-18T12:26:55;5.57;;;4.30;;
18336;SDS011;9294;51.106;7.028;2022-12-18T12:29:30;5.88;;;4.70;;
18336;SDS011;9294;51.106;7.028;2022-12-18T12:32:07;4.25;;;3.95;;
18336;SDS011;9294;51.106;7.028;2022-12-18T12:34:37;5.38;;;3.88;;
18336;SDS011;9294;51.106;7.028;2022-12-18T12:37:15;3.92;;;3.53;;
18336;SDS011;9294;51.106;7.028;2022-12-18T12:39:46;4.45;;;4.05;;
18336;SDS011;9294;51.106;7.028;2022-12-18T12:42:15;5.88;;;3.78;;
18336;SDS011;9294;51.106;7.028;2022-12-18T12:45:03;4.18;;;3.85;;
18336;SDS011;9294;51.106;7.028;2022-12-18T12:47:32;4.07;;;3.78;;
18336;SDS011;9294;51.106;7.028;2022-12-18T12:50:01;4.35;;;4.07;;
18336;SDS011;9294;51.106;7.028;2022-12-18T12:52:30;3.80;;;3.53;;
18336;SDS011;9294;51.106;7.028;2022-12-18T12:54:59;4.18;;;3.72;;
18336;SDS011;9294;51.106;7.028;2022-12-18T12:57:27;5.40;;;3.95;;
18336;SDS011;9294;51.106;7.028;2022-12-18T12:59:59;4.80;;;4.30;;
18336;SDS011;9294;51.106;7.028;2022-12-18T13:02:30;4.05;;;3.80;;
18336;SDS011;9294;51.106;7.028;2022-12-18T13:05:00;3.35;;;3.15;;
18336;SDS011;9294;51.106;7.028;2022-12-18T13:07:29;4.78;;;4.38;;
18336;SDS011;9294;51.106;7.028;2022-12-18T13:10:13;6.13;;;4.40;;
18336;SDS011;9294;51.106;7.028;2022-12-18T13:12:51;5.63;;;4.00;;
18336;SDS011;9294;51.106;7.028;2022-12-18T13:15:24;8.10;;;4.80;;
18336;SDS011;9294;51.106;7.028;2022-12-18T13:20:35;4.95;;;4.40;;
18336;SDS011;9294;51.106;7.028;2022-12-18T13:23:17;4.40;;;3.97;;
18336;SDS011;9294;51.106;7.028;2022-12-18T13:25:45;6.53;;;3.92;;
18336;SDS011;9294;51.106;7.028;2022-12-18T13:28:13;8.88;;;4.35;;
18336;SDS011;9294;51.106;7.028;2022-12-18T13:30:47;7.88;;;4.13;;
18336;SDS011;9294;51.106;7.028;2022-12-18T13:33:36;10.88;;;3.90;;
18336;SDS011;9294;51.106;7.028;2022-12-18T13:36:12;3.95;;;3.65;;
18336;SDS011;9294;51.106;7.028;2022-12-18T13:38:40;22.67;;;5.07;;
18336;SDS011;9294;51.106;7.028;2022-12-18T13:41:22;6.22;;;4.03;;
18336;SDS011;9294;51.106;7.028;2022-12-18T13:43:49;7.03;;;4.07;;
18336;SDS011;9294;51.106;7.028;2022-12-18T13:46:19;4.20;;;3.60;;
18336;SDS011;9294;51.106;7.028;2022-12-18T13:48:54;4.35;;;4.00;;
18336;SDS011;9294;51.106;7.028;2022-12-18T13:51:23;6.15;;;3.55;;
18336;SDS011;9294;51.106;7.028;2022-12-18T13:53:52;4.15;;;3.72;;
18336;SDS011;9294;51.106;7.028;2022-12-18T13:56:22;4.20;;;3.47;;
18336;SDS011;9294;51.106;7.028;2022-12-18T14:01:35;4.38;;;3.97;;
18336;SDS011;9294;51.106;7.028;2022-12-18T14:04:08;5.70;;;4.10;;
18336;SDS011;9294;51.106;7.028;2022-12-18T14:06:37;3.97;;;3.67;;
18336;SDS011;9294;51.106;7.028;2022-12-18T14:09:10;4.20;;;3.90;;
18336;SDS011;9294;51.106;7.028;2022-12-18T14:11:39;6.57;;;4.00;;
18336;SDS011;9294;51.106;7.028;2022-12-18T14:14:07;4.85;;;4.45;;
18336;SDS011;9294;51.106;7.028;2022-12-18T14:16:34;4.65;;;3.47;;
18336;SDS011;9294;51.106;7.028;2022-12-18T14:19:01;3.90;;;3.67;;
18336;SDS011;9294;51.106;7.028;2022-12-18T14:21:29;7.13;;;4.13;;
18336;SDS011;9294;51.106;7.028;2022-12-18T14:24:12;5.60;;;4.00;;
18336;SDS011;9294;51.106;7.028;2022-12-18T14:26:40;6.32;;;4.32;;
18336;SDS011;9294;51.106;7.028;2022-12-18T14:29:23;5.50;;;4.47;;
18336;SDS011;9294;51.106;7.028;2022-12-18T14:32:07;4.43;;;4.03;;
18336;SDS011;9294;51.106;7.028;2022-12-18T14:34:36;4.47;;;4.03;;
18336;SDS011;9294;51.106;7.028;2022-12-18T14:37:03;4.40;;;4.07;;
18336;SDS011;9294;51.106;7.028;2022-12-18T14:39:33;4.63;;;4.22;;
18336;SDS011;9294;51.106;7.028;2022-12-18T14:42:00;3.67;;;3.47;;
18336;SDS011;9294;51.106;7.028;2022-12-18T14:44:27;4.63;;;4.15;;
18336;SDS011;9294;51.106;7.028;2022-12-18T14:46:54;6.18;;;4.00;;
18336;SDS011;9294;51.106;7.028;2022-12-18T14:49:23;7.22;;;4.28;;
18336;SDS011;9294;51.106;7.028;2022-12-18T14:51:51;7.28;;;4.20;;
18336;SDS011;9294;51.106;7.028;2022-12-18T14:54:19;4.97;;;4.57;;
18336;SDS011;9294;51.106;7.028;2022-12-18T14:56:48;3.90;;;3.70;;
18336;SDS011;9294;51.106;7.028;2022-12-18T14:59:16;4.72;;;4.40;;
18336;SDS011;9294;51.106;7.028;2022-12-18T15:01:47;14.73;;;4.40;;
18336;SDS011;9294;51.106;7.028;2022-12-18T15:04:23;5.93;;;4.47;;
18336;SDS011;9294;51.106;7.028;2022-12-18T15:07:02;4.90;;;4.45;;
18336;SDS011;9294;51.106;7.028;2022-12-18T15:09:29;5.05;;;4.40;;
18336;SDS011;9294;51.106;7.028;2022-12-18T15:11:58;4.70;;;4.22;;
18336;SDS011;9294;51.106;7.028;2022-12-18T15:14:32;4.95;;;4.57;;
18336;SDS011;9294;51.106;7.028;2022-12-18T15:17:01;7.55;;;5.25;;
18336;SDS011;9294;51.106;7.028;2022-12-18T15:19:32;5.32;;;4.55;;
18336;SDS011;9294;51.106;7.028;2022-12-18T15:22:00;11.15;;;5.80;;
18336;SDS011;9294;51.106;7.028;2022-12-18T15:24:29;6.47;;;4.85;;
18336;SDS011;9294;51.106;7.028;2022-12-18T15:26:58;5.43;;;5.03;;
18336;SDS011;9294;51.106;7.028;2022-12-18T15:29:25;10.95;;;4.90;;
18336;SDS011;9294;51.106;7.028;2022-12-18T15:31:58;6.40;;;5.05;;
18336;SDS011;9294;51.106;7.028;2022-12-18T15:34:26;5.80;;;4.55;;
18336;SDS011;9294;51.106;7.028;2022-12-18T15:36:53;4.90;;;4.50;;
18336;SDS011;9294;51.106;7.028;2022-12-18T15:39:20;6.22;;;5.35;;
18336;SDS011;9294;51.106;7.028;2022-12-18T15:41:47;4.88;;;4.53;;
18336;SDS011;9294;51.106;7.028;2022-12-18T15:44:34;11.63;;;5.68;;
18336;SDS011;9294;51.106;7.028;2022-12-18T15:47:01;19.10;;;5.03;;
18336;SDS011;9294;51.106;7.028;2022-12-18T15:49:28;8.65;;;4.20;;
18336;SDS011;9294;51.106;7.028;2022-12-18T15:51:56;8.75;;;5.57;;
18336;SDS011;9294;51.106;7.028;2022-12-18T15:54:24;10.23;;;5.10;;
18336;SDS011;9294;51.106;7.028;2022-12-18T15:57:10;5.50;;;4.75;;
18336;SDS011;9294;51.106;7.028;2022-12-18T15:59:51;9.85;;;5.68;;
18336;SDS011;9294;51.106;7.028;2022-12-18T16:02:19;8.70;;;5.80;;
18336;SDS011;9294;51.106;7.028;2022-12-18T16:04:47;6.28;;;5.68;;
18336;SDS011;9294;51.106;7.028;2022-12-18T16:07:14;6.20;;;5.60;;
18336;SDS011;9294;51.106;7.028;2022-12-18T16:09:41;8.43;;;5.07;;
18336;SDS011;9294;51.106;7.028;2022-12-18T16:12:11;8.15;;;4.65;;
18336;SDS011;9294;51.106;7.028;2022-12-18T16:14:40;6.13;;;5.55;;
18336;SDS011;9294;51.106;7.028;2022-12-18T16:17:10;5.07;;;4.68;;
18336;SDS011;9294;51.106;7.028;2022-12-18T16:19:37;7.28;;;5.28;;
18336;SDS011;9294;51.106;7.028;2022-12-18T16:22:04;5.43;;;4.93;;
18336;SDS011;9294;51.106;7.028;2022-12-18T16:24:32;6.10;;;4.78;;
18336;SDS011;9294;51.106;7.028;2022-12-18T16:27:01;5.38;;;4.65;;
18336;SDS011;9294;51.106;7.028;2022-12-18T16:29:28;6.28;;;5.40;;
18336;SDS011;9294;51.106;7.028;2022-12-18T16:31:56;5.70;;;5.03;;
18336;SDS011;9294;51.106;7.028;2022-12-18T16:34:25;5.72;;;5.10;;
18336;SDS011;9294;51.106;7.028;2022-12-18T16:36:53;7.25;;;4.93;;
18336;SDS011;9294;51.106;7.028;2022-12-18T16:39:20;6.47;;;5.10;;
18336;SDS011;9294;51.106;7.028;2022-12-18T16:41:47;5.47;;;5.00;;
18336;SDS011;9294;51.106;7.028;2022-12-18T16:44:14;5.10;;;4.68;;
18336;SDS011;9294;51.106;7.028;2022-12-18T16:46:41;4.97;;;4.57;;
18336;SDS011;9294;51.106;7.028;2022-12-18T16:49:10;6.05;;;5.43;;
18336;SDS011;9294;51.106;7.028;2022-12-18T16:51:39;7.10;;;6.43;;
18336;SDS011;9294;51.106;7.028;2022-12-18T16:54:06;5.10;;;4.70;;
18336;SDS011;9294;51.106;7.028;2022-12-18T16:56:33;5.20;;;4.70;;
18336;SDS011;9294;51.106;7.028;2022-12-18T16:59:02;5.82;;;5.22;;
18336;SDS011;9294;51.106;7.028;2022-12-18T17:01:29;5.10;;;4.70;;
18336;SDS011;9294;51.106;7.028;2022-12-18T17:03:57;4.93;;;4.53;;
18336;SDS011;9294;51.106;7.028;2022-12-18T17:06:25;5.07;;;4.72;;
18336;SDS011;9294;51.106;7.028;2022-12-18T17:08:55;5.60;;;5.20;;
18336;SDS011;9294;51.106;7.028;2022-12-18T17:11:23;5.45;;;4.88;;
18336;SDS011;9294;51.106;7.028;2022-12-18T17:13:50;5.05;;;4.65;;
18336;SDS011;9294;51.106;7.028;2022-12-18T17:16:17;5.43;;;4.93;;
18336;SDS011;9294;51.106;7.028;2022-12-18T17:18:44;6.07;;;5.00;;
18336;SDS011;9294;51.106;7.028;2022-12-18T17:21:11;8.18;;;5.97;;
18336;SDS011;9294;51.106;7.028;2022-12-18T17:23:39;5.25;;;4.85;;
18336;SDS011;9294;51.106;7.028;2022-12-18T17:26:07;7.05;;;4.57;;
18336;SDS011;9294;51.106;7.028;2022-12-18T17:28:34;6.13;;;5.53;;
18336;SDS011;9294;51.106;7.028;2022-12-18T17:31:02;5.65;;;5.13;;
18336;SDS011;9294;51.106;7.028;2022-12-18T17:33:35;5.60;;;5.07;;
18336;SDS011;9294;51.106;7.028;2022-12-18T17:36:03;6.28;;;5.70;;
18336;SDS011;9294;51.106;7.028;2022-12-18T17:38:30;7.65;;;5.97;;
18336;SDS011;9294;51.106;7.028;2022-12-18T17:40:59;7.35;;;6.70;;
18336;SDS011;9294;51.106;7.028;2022-12-18T17:43:28;5.63;;;5.22;;
18336;SDS011;9294;51.106;7.028;2022-12-18T17:45:55;6.05;;;5.65;;
18336;SDS011;9294;51.106;7.028;2022-12-18T17:48:22;6.18;;;5.57;;
18336;SDS011;9294;51.106;7.028;2022-12-18T17:50:49;6.72;;;5.85;;
18336;SDS011;9294;51.106;7.028;2022-12-18T17:53:16;6.93;;;6.43;;
18336;SDS011;9294;51.106;7.028;2022-12-18T17:55:43;6.57;;;6.03;;
18336;SDS011;9294;51.106;7.028;2022-12-18T17:58:10;6.05;;;5.65;;
18336;SDS011;9294;51.106;7.028;2022-12-18T18:03:07;7.32;;;6.82;;
18336;SDS011;9294;51.106;7.028;2022-12-18T18:05:36;8.82;;;7.95;;
18336;SDS011;9294;51.106;7.028;2022-12-18T18:08:03;9.77;;;8.82;;
18336;SDS011;9294;51.106;7.028;2022-12-18T18:10:31;8.77;;;8.07;;
18336;SDS011;9294;51.106;7.028;2022-12-18T18:12:59;8.75;;;8.05;;
18336;SDS011;9294;51.106;7.028;2022-12-18T18:15:44;9.10;;;8.40;;
18336;SDS011;9294;51.106;7.028;2022-12-18T18:18:16;9.32;;;8.63;;
18336;SDS011;9294;51.106;7.028;2022-12-18T18:20:43;9.38;;;8.55;;
18336;SDS011;9294;51.106;7.028;2022-12-18T18:23:10;8.10;;;7.47;;
18336;SDS011;9294;51.106;7.028;2022-12-18T18:25:37;8.85;;;7.97;;
18336;SDS011;9294;51.106;7.028;2022-12-18T18:28:04;8.57;;;7.88;;
18336;SDS011;9294;51.106;7.028;2022-12-18T18:30:31;8.55;;;7.85;;
18336;SDS011;9294;51.106;7.028;2022-12-18T18:32:58;7.85;;;7.28;;
18336;SDS011;9294;51.106;7.028;2022-12-18T18:35:26;7.75;;;7.15;;
18336;SDS011;9294;51.106;7.028;2022-12-18T18:37:53;8.30;;;7.70;;
18336;SDS011;9294;51.106;7.028;2022-12-18T18:40:20;9.43;;;8.13;;
18336;SDS011;9294;51.106;7.028;2022-12-18T18:42:47;8.65;;;7.85;;
18336;SDS011;9294;51.106;7.028;2022-12-18T18:45:15;9.13;;;8.40;;
18336;SDS011;9294;51.106;7.028;2022-12-18T18:47:42;10.80;;;9.13;;
18336;SDS011;9294;51.106;7.028;2022-12-18T18:50:09;9.68;;;8.82;;
18336;SDS011;9294;51.106;7.028;2022-12-18T18:52:38;9.20;;;8.35;;
18336;SDS011;9294;51.106;7.028;2022-12-18T18:55:05;10.15;;;9.00;;
18336;SDS011;9294;51.106;7.028;2022-12-18T18:57:33;9.48;;;8.68;;
18336;SDS011;9294;51.106;7.028;2022-12-18T19:00:00;9.70;;;8.80;;
18336;SDS011;9294;51.106;7.028;2022-12-18T19:02:27;10.43;;;9.52;;
18336;SDS011;9294;51.106;7.028;2022-12-18T19:04:54;9.20;;;8.38;;
18336;SDS011;9294;51.106;7.028;2022-12-18T19:07:22;10.30;;;9.30;;
18336;SDS011;9294;51.106;7.028;2022-12-18T19:09:50;9.93;;;8.95;;
18336;SDS011;9294;51.106;7.028;2022-12-18T19:12:18;10.80;;;9.20;;
18336;SDS011;9294;51.106;7.028;2022-12-18T19:15:03;11.60;;;9.77;;
18336;SDS011;9294;51.106;7.028;2022-12-18T19:17:30;10.18;;;8.80;;
18336;SDS011;9294;51.106;7.028;2022-12-18T19:19:57;11.80;;;10.80;;
18336;SDS011;9294;51.106;7.028;2022-12-18T19:22:25;10.82;;;9.82;;
18336;SDS011;9294;51.106;7.028;2022-12-18T19:24:53;10.85;;;9.88;;
18336;SDS011;9294;51.106;7.028;2022-12-18T19:27:20;11.13;;;10.05;;
18336;SDS011;9294;51.106;7.028;2022-12-18T19:29:47;10.43;;;9.52;;
18336;SDS011;9294;51.106;7.028;2022-12-18T19:32:15;11.00;;;9.55;;
18336;SDS011;9294;51.106;7.028;2022-12-18T19:34:42;10.57;;;9.57;;
18336;SDS011;9294;51.106;7.028;2022-12-18T19:37:09;10.48;;;9.52;;
18336;SDS011;9294;51.106;7.028;2022-12-18T19:39:36;10.43;;;9.43;;
18336;SDS011;9294;51.106;7.028;2022-12-18T19:42:05;9.73;;;8.82;;
18336;SDS011;9294;51.106;7.028;2022-12-18T19:44:32;9.88;;;8.80;;
18336;SDS011;9294;51.106;7.028;2022-12-18T19:46:59;10.85;;;9.75;;
18336;SDS011;9294;51.106;7.028;2022-12-18T19:49:26;10.95;;;9.52;;
18336;SDS011;9294;51.106;7.028;2022-12-18T19:51:54;9.65;;;8.43;;
18336;SDS011;9294;51.106;7.028;2022-12-18T19:54:21;10.88;;;9.68;;
18336;SDS011;9294;51.106;7.028;2022-12-18T19:56:48;9.82;;;9.05;;
18336;SDS011;9294;51.106;7.028;2022-12-18T19:59:18;9.32;;;8.63;;
18336;SDS011;9294;51.106;7.028;2022-12-18T20:01:45;9.57;;;8.63;;
18336;SDS011;9294;51.106;7.028;2022-12-18T20:04:12;10.48;;;9.20;;
18336;SDS011;9294;51.106;7.028;2022-12-18T20:06:45;9.43;;;8.52;;
18336;SDS011;9294;51.106;7.028;2022-12-18T20:09:12;9.30;;;8.40;;
18336;SDS011;9294;51.106;7.028;2022-12-18T20:11:39;9.93;;;9.02;;
18336;SDS011;9294;51.106;7.028;2022-12-18T20:14:06;9.52;;;8.68;;
18336;SDS011;9294;51.106;7.028;2022-12-18T20:16:35;7.97;;;7.28;;
18336;SDS011;9294;51.106;7.028;2022-12-18T20:19:02;9.23;;;8.43;;
18336;SDS011;9294;51.106;7.028;2022-12-18T20:21:29;7.95;;;7.28;;
18336;SDS011;9294;51.106;7.028;2022-12-18T20:23:56;8.63;;;7.80;;
18336;SDS011;9294;51.106;7.028;2022-12-18T20:26:25;8.38;;;7.60;;
18336;SDS011;9294;51.106;7.028;2022-12-18T20:28:52;8.98;;;8.18;;
18336;SDS011;9294;51.106;7.028;2022-12-18T20:31:20;9.23;;;8.43;;
18336;SDS011;9294;51.106;7.028;2022-12-18T20:33:49;8.98;;;8.05;;
18336;SDS011;9294;51.106;7.028;2022-12-18T20:36:18;8.60;;;7.80;;
18336;SDS011;9294;51.106;7.028;2022-12-18T20:38:48;8.00;;;7.40;;
18336;SDS011;9294;51.106;7.028;2022-12-18T20:41:18;9.05;;;8.05;;
18336;SDS011;9294;51.106;7.028;2022-12-18T20:43:46;8.05;;;7.45;;
18336;SDS011;9294;51.106;7.028;2022-12-18T20:46:14;8.25;;;7.45;;
18336;SDS011;9294;51.106;7.028;2022-12-18T20:48:42;8.20;;;7.10;;
18336;SDS011;9294;51.106;7.028;2022-12-18T20:51:11;8.43;;;7.50;;
18336;SDS011;9294;51.106;7.028;2022-12-18T20:53:38;7.53;;;6.80;;
18336;SDS011;9294;51.106;7.028;2022-12-18T20:56:05;7.75;;;7.13;;
18336;SDS011;9294;51.106;7.028;2022-12-18T20:58:33;7.38;;;6.72;;
18336;SDS011;9294;51.106;7.028;2022-12-18T21:01:04;8.27;;;7.68;;
18336;SDS011;9294;51.106;7.028;2022-12-18T21:03:32;8.10;;;7.50;;
18336;SDS011;9294;51.106;7.028;2022-12-18T21:05:59;8.30;;;7.60;;
18336;SDS011;9294;51.106;7.028;2022-12-18T21:08:27;7.70;;;7.00;;
18336;SDS011;9294;51.106;7.028;2022-12-18T21:10:54;6.60;;;6.10;;
18336;SDS011;9294;51.106;7.028;2022-12-18T21:13:22;7.78;;;6.38;;
18336;SDS011;9294;51.106;7.028;2022-12-18T21:15:48;7.55;;;6.95;;
18336;SDS011;9294;51.106;7.028;2022-12-18T21:18:15;7.80;;;7.15;;
18336;SDS011;9294;51.106;7.028;2022-12-18T21:20:42;7.25;;;6.65;;
18336;SDS011;9294;51.106;7.028;2022-12-18T21:23:09;7.85;;;7.07;;
18336;SDS011;9294;51.106;7.028;2022-12-18T21:25:38;7.28;;;6.57;;
18336;SDS011;9294;51.106;7.028;2022-12-18T21:28:05;6.72;;;6.22;;
18336;SDS011;9294;51.106;7.028;2022-12-18T21:30:32;7.47;;;6.88;;
18336;SDS011;9294;51.106;7.028;2022-12-18T21:32:59;7.30;;;6.70;;
18336;SDS011;9294;51.106;7.028;2022-12-18T21:35:26;7.15;;;6.60;;
18336;SDS011;9294;51.106;7.028;2022-12-18T21:37:53;11.23;;;7.95;;
18336;SDS011;9294;51.106;7.028;2022-12-18T21:40:20;6.88;;;6.38;;
18336;SDS011;9294;51.106;7.028;2022-12-18T21:42:48;7.43;;;6.82;;
18336;SDS011;9294;51.106;7.028;2022-12-18T21:45:33;7.22;;;6.57;;
18336;SDS011;9294;51.106;7.028;2022-12-18T21:48:00;6.88;;;6.28;;
18336;SDS011;9294;51.106;7.028;2022-12-18T21:50:27;7.72;;;7.03;;
18336;SDS011;9294;51.106;7.028;2022-12-18T21:52:54;6.28;;;5.75;;
18336;SDS011;9294;51.106;7.028;2022-12-18T21:55:21;10.32;;;7.68;;
18336;SDS011;9294;51.106;7.028;2022-12-18T21:57:50;19.02;;;10.68;;
18336;SDS011;9294;51.106;7.028;2022-12-18T22:00:19;20.40;;;12.55;;
18336;SDS011;9294;51.106;7.028;2022-12-18T22:02:46;21.85;;;12.63;;
18336;SDS011;9294;51.106;7.028;2022-12-18T22:05:13;15.43;;;10.55;;
18336;SDS011;9294;51.106;7.028;2022-12-18T22:07:40;19.08;;;10.75;;
18336;SDS011;9294;51.106;7.028;2022-12-18T22:10:08;16.90;;;11.65;;
18336;SDS011;9294;51.106;7.028;2022-12-18T22:12:35;20.67;;;12.27;;
18336;SDS011;9294;51.106;7.028;2022-12-18T22:15:04;21.73;;;11.95;;
18336;SDS011;9294;51.106;7.028;2022-12-18T22:17:31;21.48;;;12.25;;
18336;SDS011;9294;51.106;7.028;2022-12-18T22:19:58;24.08;;;12.73;;
18336;SDS011;9294;51.106;7.028;2022-12-18T22:22:25;19.38;;;10.77;;
18336;SDS011;9294;51.106;7.028;2022-12-18T22:24:52;21.77;;;11.10;;
18336;SDS011;9294;51.106;7.028;2022-12-18T22:27:19;19.60;;;10.73;;
18336;SDS011;9294;51.106;7.028;2022-12-18T22:29:47;16.48;;;10.55;;
18336;SDS011;9294;51.106;7.028;2022-12-18T22:32:29;16.20;;;10.93;;
18336;SDS011;9294;51.106;7.028;2022-12-18T22:34:57;17.10;;;10.90;;
18336;SDS011;9294;51.106;7.028;2022-12-18T22:37:24;14.02;;;9.60;;
18336;SDS011;9294;51.106;7.028;2022-12-18T22:39:51;14.27;;;9.93;;
18336;SDS011;9294;51.106;7.028;2022-12-18T22:42:18;13.65;;;10.20;;
18336;SDS011;9294;51.106;7.028;2022-12-18T22:44:45;14.80;;;9.68;;
18336;SDS011;9294;51.106;7.028;2022-12-18T22:47:12;10.48;;;9.25;;
18336;SDS011;9294;51.106;7.028;2022-12-18T22:49:40;17.95;;;9.63;;
18336;SDS011;9294;51.106;7.028;2022-12-18T22:52:08;11.85;;;8.98;;
18336;SDS011;9294;51.106;7.028;2022-12-18T22:54:35;14.32;;;10.02;;
18336;SDS011;9294;51.106;7.028;2022-12-18T22:57:02;12.57;;;9.20;;
18336;SDS011;9294;51.106;7.028;2022-12-18T22:59:29;11.43;;;8.80;;
18336;SDS011;9294;51.106;7.028;2022-12-18T23:01:56;14.18;;;9.25;;
18336;SDS011;9294;51.106;7.028;2022-12-18T23:04:23;10.73;;;8.95;;
18336;SDS011;9294;51.106;7.028;2022-12-18T23:06:53;9.55;;;8.18;;
18336;SDS011;9294;51.106;7.028;2022-12-18T23:09:20;11.88;;;8.43;;
18336;SDS011;9294;51.106;7.028;2022-12-18T23:11:48;12.90;;;8.50;;
18336;SDS011;9294;51.106;7.028;2022-12-18T23:14:15;10.15;;;8.23;;
18336;SDS011;9294;51.106;7.028;2022-12-18T23:16:43;10.70;;;8.13;;
18336;SDS011;9294;51.106;7.028;2022-12-18T23:19:10;12.82;;;9.60;;
18336;SDS011;9294;51.106;7.028;2022-12-18T23:21:37;10.73;;;8.68;;
18336;SDS011;9294;51.106;7.028;2022-12-18T23:24:06;9.05;;;7.68;;
18336;SDS011;9294;51.106;7.028;2022-12-18T23:26:33;10.55;;;8.07;;
18336;SDS011;9294;51.106;7.028;2022-12-18T23:29:00;9.93;;;7.82;;
18336;SDS011;9294;51.106;7.028;2022-12-18T23:31:28;10.48;;;8.02;;
18336;SDS011;9294;51.106;7.028;2022-12-18T23:33:56;10.05;;;8.35;;
18336;SDS011;9294;51.106;7.028;2022-12-18T23:36:24;8.73;;;7.65;;
18336;SDS011;9294;51.106;7.028;2022-12-18T23:38:52;9.25;;;7.72;;
18336;SDS011;9294;51.106;7.028;2022-12-18T23:41:21;7.72;;;6.90;;
18336;SDS011;9294;51.106;7.028;2022-12-18T23:43:49;9.27;;;8.25;;
18336;SDS011;9294;51.106;7.028;2022-12-18T23:46:16;10.77;;;8.45;;
18336;SDS011;9294;51.106;7.028;2022-12-18T23:48:44;9.35;;;7.80;;
18336;SDS011;9294;51.106;7.028;2022-12-18T23:51:12;8.27;;;7.47;;
18336;SDS011;9294;51.106;7.028;2022-12-18T23:53:39;8.60;;;7.80;;
18336;SDS011;9294;51.106;7.028;2022-12-18T23:56:07;8.57;;;7.78;;
18336;SDS011;9294;51.106;7.028;2022-12-18T23:58:35;8.45;;;7.30;;
